createdAt,value
2019-06-20T00:00:48.829Z,24.28
2019-06-20T00:01:48.845Z,24.29
2019-06-20T00:02:48.804Z,24.28
2019-06-20T00:03:49.223Z,24.31
2019-06-20T00:04:48.841Z,24.21
2019-06-20T00:05:48.791Z,24.28
2019-06-20T00:06:48.907Z,24.22
2019-06-20T00:07:48.818Z,24.21
2019-06-20T00:08:49.181Z,24.22
2019-06-20T00:09:52.357Z,24.18
2019-06-20T00:10:48.765Z,24.14
2019-06-20T00:11:48.746Z,24.22
2019-06-20T00:13:00.020Z,24.10
2019-06-20T00:13:49.673Z,24.24
2019-06-20T00:14:48.740Z,24.18
2019-06-20T00:15:48.707Z,24.22
2019-06-20T00:16:48.692Z,24.22
2019-06-20T00:17:48.754Z,24.21
2019-06-20T00:18:48.689Z,24.18
2019-06-20T00:19:48.584Z,24.22
2019-06-20T00:20:48.593Z,24.24
2019-06-20T00:21:48.683Z,24.14
2019-06-20T00:22:48.570Z,24.13
2019-06-20T00:23:48.568Z,24.13
2019-06-20T00:24:48.619Z,24.13
2019-06-20T00:25:48.564Z,24.00
2019-06-20T00:26:48.552Z,23.91
2019-06-20T00:27:48.536Z,23.81
2019-06-20T00:28:48.568Z,23.73
2019-06-20T00:29:48.494Z,23.77
2019-06-20T00:30:48.505Z,23.73
2019-06-20T00:31:48.478Z,23.74
2019-06-20T00:32:48.476Z,23.77
2019-06-20T00:33:48.462Z,23.85
2019-06-20T00:34:48.452Z,23.94
2019-06-20T00:35:48.472Z,23.99
2019-06-20T00:36:51.271Z,24.18
2019-06-20T00:37:48.435Z,24.48
2019-06-20T00:38:48.420Z,24.53
2019-06-20T00:39:48.406Z,24.59
2019-06-20T00:40:48.416Z,24.61
2019-06-20T00:41:48.351Z,24.86
2019-06-20T00:42:48.422Z,25.04
2019-06-20T00:43:48.389Z,25.11
2019-06-20T00:44:48.375Z,25.09
2019-06-20T00:45:48.336Z,25.06
2019-06-20T00:46:48.326Z,25.04
2019-06-20T00:47:48.446Z,24.96
2019-06-20T00:48:48.360Z,24.74
2019-06-20T00:49:48.285Z,24.65
2019-06-20T00:50:48.299Z,24.48
2019-06-20T00:51:48.307Z,24.46
2019-06-20T00:52:49.077Z,24.48
2019-06-20T00:53:48.253Z,24.38
2019-06-20T00:54:48.255Z,24.34
2019-06-20T00:55:48.223Z,24.25
2019-06-20T00:56:48.256Z,24.24
2019-06-20T00:57:48.228Z,24.16
2019-06-20T00:58:48.198Z,24.10
2019-06-20T00:59:48.174Z,24.11
2019-06-20T01:00:48.221Z,24.01
2019-06-20T01:01:48.186Z,24.01
2019-06-20T01:02:48.173Z,23.92
2019-06-20T01:03:57.478Z,23.94
2019-06-20T01:04:57.316Z,23.84
2019-06-20T01:05:57.244Z,23.88
2019-06-20T01:06:56.752Z,23.84
2019-06-20T01:07:57.385Z,23.73
2019-06-20T01:08:58.594Z,23.66
2019-06-20T01:09:57.319Z,23.49
2019-06-20T01:10:57.371Z,23.37
2019-06-20T01:11:57.897Z,23.29
2019-06-20T01:12:55.989Z,23.26
2019-06-20T01:13:57.504Z,23.16
2019-06-20T01:14:57.584Z,23.08
2019-06-20T01:15:57.490Z,23.01
2019-06-20T01:16:48.033Z,22.98
2019-06-20T01:17:48.051Z,22.95
2019-06-20T01:18:47.976Z,22.86
2019-06-20T01:19:47.966Z,22.88
2019-06-20T01:20:47.997Z,22.77
2019-06-20T01:21:57.210Z,22.70
2019-06-20T01:22:47.986Z,22.67
2019-06-20T01:23:47.986Z,22.55
2019-06-20T01:24:47.981Z,22.46
2019-06-20T01:25:47.921Z,22.26
2019-06-20T01:26:47.892Z,22.28
2019-06-20T01:27:47.874Z,22.14
2019-06-20T01:28:47.922Z,21.99
2019-06-20T01:29:47.923Z,21.92
2019-06-20T01:30:47.841Z,21.80
2019-06-20T01:31:47.836Z,21.80
2019-06-20T01:32:47.817Z,21.69
2019-06-20T01:33:47.839Z,21.60
2019-06-20T01:34:47.824Z,21.60
2019-06-20T01:35:47.795Z,21.68
2019-06-20T01:36:47.775Z,21.58
2019-06-20T01:37:47.779Z,21.54
2019-06-20T01:38:47.795Z,21.50
2019-06-20T01:39:47.749Z,21.45
2019-06-20T01:40:47.751Z,21.40
2019-06-20T01:41:47.734Z,21.37
2019-06-20T01:42:47.742Z,21.38
2019-06-20T01:43:50.900Z,21.37
2019-06-20T01:44:47.707Z,21.32
2019-06-20T01:45:47.667Z,21.32
2019-06-20T01:46:47.656Z,21.22
2019-06-20T01:47:47.660Z,21.30
2019-06-20T01:48:47.695Z,21.22
2019-06-20T01:49:47.726Z,21.19
2019-06-20T01:50:47.612Z,21.13
2019-06-20T01:51:47.618Z,21.04
2019-06-20T01:52:47.612Z,20.93
2019-06-20T01:53:47.614Z,20.96
2019-06-20T01:54:47.615Z,20.92
2019-06-20T01:55:47.612Z,20.78
2019-06-20T01:56:47.581Z,20.83
2019-06-20T01:57:47.641Z,20.80
2019-06-20T01:58:47.548Z,20.80
2019-06-20T01:59:47.562Z,20.77
2019-06-20T02:00:47.545Z,20.74
2019-06-20T02:01:47.494Z,20.82
2019-06-20T02:02:47.502Z,20.80
2019-06-20T02:03:47.495Z,20.68
2019-06-20T02:04:47.501Z,20.60
2019-06-20T02:05:47.498Z,20.64
2019-06-20T02:06:47.454Z,20.55
2019-06-20T02:07:47.453Z,20.53
2019-06-20T02:08:47.435Z,20.53
2019-06-20T02:09:47.432Z,20.58
2019-06-20T02:10:47.444Z,20.53
2019-06-20T02:11:47.446Z,20.50
2019-06-20T02:12:47.387Z,20.46
2019-06-20T02:13:47.404Z,20.50
2019-06-20T02:14:47.389Z,20.46
2019-06-20T02:15:47.419Z,20.46
2019-06-20T02:16:47.410Z,20.37
2019-06-20T02:17:47.350Z,20.37
2019-06-20T02:18:47.342Z,20.39
2019-06-20T02:19:47.330Z,20.30
2019-06-20T02:20:47.321Z,20.27
2019-06-20T02:21:47.300Z,20.30
2019-06-20T02:22:47.310Z,20.29
2019-06-20T02:23:47.324Z,20.33
2019-06-20T02:24:47.307Z,20.26
2019-06-20T02:25:47.289Z,20.27
2019-06-20T02:26:47.272Z,20.33
2019-06-20T02:27:47.269Z,20.24
2019-06-20T02:28:47.219Z,20.29
2019-06-20T02:29:47.222Z,20.27
2019-06-20T02:30:47.255Z,20.11
2019-06-20T02:31:47.213Z,20.15
2019-06-20T02:32:47.283Z,20.21
2019-06-20T02:33:47.175Z,20.17
2019-06-20T02:34:47.218Z,20.14
2019-06-20T02:35:47.158Z,20.11
2019-06-20T02:36:47.161Z,20.04
2019-06-20T02:37:47.151Z,20.11
2019-06-20T02:38:47.139Z,20.07
2019-06-20T02:39:47.106Z,19.99
2019-06-20T02:40:47.119Z,20.00
2019-06-20T02:41:47.156Z,19.97
2019-06-20T02:42:47.074Z,19.93
2019-06-20T02:43:47.094Z,20.02
2019-06-20T02:44:47.073Z,19.87
2019-06-20T02:45:47.045Z,19.79
2019-06-20T02:46:47.024Z,19.84
2019-06-20T02:47:47.125Z,19.89
2019-06-20T02:48:47.011Z,19.92
2019-06-20T02:49:47.017Z,19.87
2019-06-20T02:50:47.018Z,19.87
2019-06-20T02:51:47.004Z,19.82
2019-06-20T02:52:46.996Z,19.94
2019-06-20T02:53:46.955Z,19.87
2019-06-20T02:54:46.979Z,19.93
2019-06-20T02:55:46.946Z,19.94
2019-06-20T02:56:47.002Z,19.94
2019-06-20T02:57:46.931Z,19.96
2019-06-20T02:58:46.928Z,19.97
2019-06-20T02:59:46.895Z,19.97
2019-06-20T03:00:46.906Z,20.02
2019-06-20T03:01:46.886Z,20.02
2019-06-20T03:02:46.857Z,20.07
2019-06-20T03:03:46.871Z,20.08
2019-06-20T03:04:46.832Z,20.07
2019-06-20T03:05:46.887Z,20.11
2019-06-20T03:06:46.822Z,20.11
2019-06-20T03:07:46.795Z,20.03
2019-06-20T03:08:46.806Z,20.04
2019-06-20T03:09:46.833Z,20.17
2019-06-20T03:10:46.791Z,20.24
2019-06-20T03:11:46.760Z,20.22
2019-06-20T03:12:46.790Z,20.27
2019-06-20T03:13:46.755Z,20.26
2019-06-20T03:14:46.729Z,20.40
2019-06-20T03:15:49.894Z,20.48
2019-06-20T03:16:46.740Z,20.42
2019-06-20T03:17:46.715Z,20.48
2019-06-20T03:18:46.712Z,20.48
2019-06-20T03:19:46.707Z,20.46
2019-06-20T03:20:46.670Z,20.48
2019-06-20T03:21:46.681Z,20.49
2019-06-20T03:22:46.652Z,20.48
2019-06-20T03:23:46.631Z,20.48
2019-06-20T03:24:46.658Z,20.44
2019-06-20T03:25:46.605Z,20.50
2019-06-20T03:26:46.639Z,20.52
2019-06-20T03:27:46.599Z,20.44
2019-06-20T03:28:46.590Z,20.46
2019-06-20T03:29:46.596Z,20.48
2019-06-20T03:30:46.575Z,20.42
2019-06-20T03:31:46.577Z,20.46
2019-06-20T03:32:46.558Z,20.39
2019-06-20T03:33:46.521Z,20.27
2019-06-20T03:34:46.517Z,20.32
2019-06-20T03:35:46.499Z,20.26
2019-06-20T03:36:46.508Z,20.26
2019-06-20T03:37:50.022Z,20.26
2019-06-20T03:38:46.487Z,20.24
2019-06-20T03:39:46.447Z,20.24
2019-06-20T03:40:46.464Z,20.21
2019-06-20T03:41:46.446Z,20.26
2019-06-20T03:42:46.443Z,20.29
2019-06-20T03:43:46.467Z,20.29
2019-06-20T03:45:01.218Z,20.29
2019-06-20T03:45:47.484Z,20.27
2019-06-20T03:46:46.402Z,20.24
2019-06-20T03:47:46.396Z,20.27
2019-06-20T03:48:46.369Z,20.26
2019-06-20T03:49:46.371Z,20.12
2019-06-20T03:50:46.347Z,20.18
2019-06-20T03:51:46.331Z,20.21
2019-06-20T03:52:46.386Z,20.15
2019-06-20T03:53:46.343Z,20.17
2019-06-20T03:54:47.053Z,20.14
2019-06-20T03:55:46.330Z,20.27
2019-06-20T03:56:46.300Z,20.26
2019-06-20T03:57:46.283Z,20.24
2019-06-20T03:58:46.297Z,20.33
2019-06-20T03:59:46.263Z,20.44
2019-06-20T04:00:46.252Z,20.52
2019-06-20T04:01:49.126Z,20.42
2019-06-20T04:02:46.227Z,20.58
2019-06-20T04:03:46.249Z,20.59
2019-06-20T04:04:46.193Z,20.63
2019-06-20T04:05:46.213Z,20.70
2019-06-20T04:06:46.215Z,20.78
2019-06-20T04:07:46.222Z,20.78
2019-06-20T04:08:46.185Z,20.74
2019-06-20T04:09:55.570Z,20.82
2019-06-20T04:10:46.107Z,20.89
2019-06-20T04:11:46.128Z,20.92
2019-06-20T04:12:46.108Z,20.85
2019-06-20T04:13:46.115Z,20.80
2019-06-20T04:14:48.994Z,20.89
2019-06-20T04:15:46.074Z,20.93
2019-06-20T04:16:46.068Z,20.95
2019-06-20T04:17:46.036Z,21.03
2019-06-20T04:18:46.102Z,20.98
2019-06-20T04:19:46.030Z,21.05
2019-06-20T04:20:46.045Z,21.05
2019-06-20T04:21:46.033Z,21.19
2019-06-20T04:22:46.023Z,21.19
2019-06-20T04:23:46.034Z,21.28
2019-06-20T04:24:45.972Z,21.29
2019-06-20T04:25:45.966Z,21.38
2019-06-20T04:26:45.955Z,21.38
2019-06-20T04:27:45.939Z,21.45
2019-06-20T04:28:45.941Z,21.44
2019-06-20T04:29:45.960Z,21.45
2019-06-20T04:30:45.968Z,21.44
2019-06-20T04:31:45.932Z,21.63
2019-06-20T04:32:45.938Z,21.60
2019-06-20T04:33:45.897Z,21.63
2019-06-20T04:34:45.888Z,21.70
2019-06-20T04:35:45.861Z,21.70
2019-06-20T04:36:48.074Z,21.66
2019-06-20T04:37:45.930Z,21.75
2019-06-20T04:38:45.815Z,21.81
2019-06-20T04:39:45.813Z,21.91
2019-06-20T04:40:45.791Z,21.96
2019-06-20T04:41:45.813Z,22.03
2019-06-20T04:42:45.792Z,22.00
2019-06-20T04:43:45.802Z,21.99
2019-06-20T04:44:45.762Z,22.01
2019-06-20T04:45:45.784Z,22.01
2019-06-20T04:46:45.768Z,22.03
2019-06-20T04:47:45.749Z,22.18
2019-06-20T04:48:45.737Z,22.15
2019-06-20T04:49:45.705Z,22.25
2019-06-20T04:50:45.694Z,22.25
2019-06-20T04:51:45.716Z,22.33
2019-06-20T04:52:45.683Z,22.37
2019-06-20T04:53:45.679Z,22.43
2019-06-20T04:54:45.723Z,22.49
2019-06-20T04:55:45.665Z,22.51
2019-06-20T04:56:45.665Z,22.49
2019-06-20T04:57:45.726Z,22.55
2019-06-20T04:58:45.662Z,22.55
2019-06-20T04:59:45.653Z,22.53
2019-06-20T05:00:45.609Z,22.68
2019-06-20T05:01:45.772Z,22.80
2019-06-20T05:02:45.597Z,22.76
2019-06-20T05:03:45.844Z,22.91
2019-06-20T05:04:46.494Z,23.01
2019-06-20T05:05:45.554Z,23.04
2019-06-20T05:06:45.532Z,23.13
2019-06-20T05:07:45.554Z,23.29
2019-06-20T05:08:45.535Z,23.45
2019-06-20T05:09:45.564Z,23.55
2019-06-20T05:10:45.514Z,23.67
2019-06-20T05:11:45.494Z,23.71
2019-06-20T05:12:45.475Z,23.76
2019-06-20T05:13:45.527Z,23.91
2019-06-20T05:14:45.515Z,23.96
2019-06-20T05:15:52.566Z,24.14
2019-06-20T05:16:46.451Z,24.21
2019-06-20T05:17:45.466Z,24.28
2019-06-20T05:18:45.440Z,24.40
2019-06-20T05:19:45.516Z,24.38
2019-06-20T05:20:45.394Z,24.47
2019-06-20T05:21:45.417Z,24.37
2019-06-20T05:22:45.759Z,24.28
2019-06-20T05:23:45.388Z,24.22
2019-06-20T05:24:45.437Z,24.07
2019-06-20T05:25:45.390Z,24.18
2019-06-20T05:26:45.327Z,24.07
2019-06-20T05:27:45.999Z,24.03
2019-06-20T05:28:45.383Z,23.95
2019-06-20T05:29:45.355Z,23.94
2019-06-20T05:30:45.353Z,23.94
2019-06-20T05:31:45.292Z,23.86
2019-06-20T05:32:45.444Z,23.73
2019-06-20T05:33:45.268Z,23.82
2019-06-20T05:34:45.248Z,23.84
2019-06-20T05:35:45.254Z,23.88
2019-06-20T05:36:45.245Z,23.73
2019-06-20T05:37:45.232Z,23.73
2019-06-20T05:38:45.209Z,23.70
2019-06-20T05:39:45.211Z,23.70
2019-06-20T05:40:45.181Z,23.67
2019-06-20T05:41:45.206Z,23.67
2019-06-20T05:42:45.191Z,23.67
2019-06-20T05:43:45.143Z,23.69
2019-06-20T05:44:45.161Z,23.62
2019-06-20T05:45:48.529Z,23.67
2019-06-20T05:46:45.172Z,23.63
2019-06-20T05:47:55.623Z,23.48
2019-06-20T05:48:45.120Z,23.52
2019-06-20T05:49:45.121Z,23.51
2019-06-20T05:50:45.102Z,23.42
2019-06-20T05:51:45.074Z,23.39
2019-06-20T05:52:45.160Z,23.44
2019-06-20T05:53:54.165Z,23.36
2019-06-20T05:54:45.018Z,23.40
2019-06-20T05:55:45.038Z,23.39
2019-06-20T05:56:44.995Z,23.42
2019-06-20T05:57:45.032Z,23.48
2019-06-20T05:58:45.974Z,23.51
2019-06-20T05:59:45.035Z,23.51
2019-06-20T06:00:45.075Z,23.58
2019-06-20T06:01:44.958Z,23.64
2019-06-20T06:02:54.221Z,23.63
2019-06-20T06:03:44.925Z,23.76
2019-06-20T06:04:44.943Z,23.71
2019-06-20T06:05:44.924Z,23.71
2019-06-20T06:06:44.999Z,23.86
2019-06-20T06:07:44.891Z,23.86
2019-06-20T06:08:44.982Z,23.71
2019-06-20T06:09:45.718Z,23.81
2019-06-20T06:10:44.863Z,23.85
2019-06-20T06:11:44.858Z,23.74
2019-06-20T06:12:46.325Z,23.86
2019-06-20T06:13:44.821Z,23.84
2019-06-20T06:14:44.823Z,23.81
2019-06-20T06:15:44.890Z,23.91
2019-06-20T06:16:44.785Z,23.82
2019-06-20T06:17:44.800Z,23.79
2019-06-20T06:18:44.917Z,23.84
2019-06-20T06:19:44.782Z,23.85
2019-06-20T06:20:45.117Z,23.73
2019-06-20T06:21:44.803Z,23.74
2019-06-20T06:22:44.943Z,23.71
2019-06-20T06:23:44.746Z,23.66
2019-06-20T06:24:44.715Z,23.63
2019-06-20T06:25:44.849Z,23.55
2019-06-20T06:26:44.813Z,23.48
2019-06-20T06:27:44.713Z,23.44
2019-06-20T06:28:44.691Z,23.26
2019-06-20T06:29:44.699Z,23.25
2019-06-20T06:30:44.658Z,23.10
2019-06-20T06:31:44.695Z,23.08
2019-06-20T06:32:44.667Z,22.99
2019-06-20T06:33:44.647Z,22.96
2019-06-20T06:34:44.605Z,22.89
2019-06-20T06:35:44.588Z,22.77
2019-06-20T06:36:44.657Z,22.67
2019-06-20T06:37:44.587Z,22.73
2019-06-20T06:38:44.639Z,22.59
2019-06-20T06:39:44.726Z,22.43
2019-06-20T06:40:44.558Z,22.44
2019-06-20T06:41:44.768Z,22.36
2019-06-20T06:42:44.621Z,22.21
2019-06-20T06:43:44.529Z,22.16
2019-06-20T06:44:44.504Z,22.00
2019-06-20T06:45:44.506Z,22.00
2019-06-20T06:46:53.276Z,22.01
2019-06-20T06:47:45.533Z,21.99
2019-06-20T06:48:44.523Z,21.91
2019-06-20T06:49:45.146Z,21.96
2019-06-20T06:50:44.502Z,21.94
2019-06-20T06:51:44.435Z,21.91
2019-06-20T06:52:44.502Z,21.88
2019-06-20T06:53:44.387Z,21.83
2019-06-20T06:54:44.428Z,21.74
2019-06-20T06:55:44.405Z,21.72
2019-06-20T06:56:44.378Z,21.70
2019-06-20T06:57:44.459Z,21.62
2019-06-20T06:58:44.363Z,21.53
2019-06-20T06:59:44.405Z,21.51
2019-06-20T07:00:44.333Z,21.28
2019-06-20T07:01:44.345Z,21.29
2019-06-20T07:02:44.322Z,21.08
2019-06-20T07:03:44.347Z,20.98
2019-06-20T07:04:44.297Z,21.00
2019-06-20T07:05:44.294Z,20.93
2019-06-20T07:06:45.129Z,20.89
2019-06-20T07:07:44.297Z,20.89
2019-06-20T07:08:44.288Z,20.82
2019-06-20T07:09:44.254Z,20.75
2019-06-20T07:10:44.231Z,20.78
2019-06-20T07:11:44.240Z,20.82
2019-06-20T07:12:44.232Z,20.71
2019-06-20T07:13:44.237Z,20.71
2019-06-20T07:14:44.192Z,20.73
2019-06-20T07:15:44.187Z,20.70
2019-06-20T07:16:59.460Z,20.74
2019-06-20T07:17:45.503Z,20.66
2019-06-20T07:18:44.220Z,20.74
2019-06-20T07:19:44.122Z,20.74
2019-06-20T07:20:44.149Z,20.80
2019-06-20T07:21:44.137Z,20.77
2019-06-20T07:22:44.331Z,20.88
2019-06-20T07:23:44.135Z,20.89
2019-06-20T07:24:44.285Z,21.01
2019-06-20T07:25:44.097Z,21.08
2019-06-20T07:26:44.123Z,21.15
2019-06-20T07:27:44.069Z,21.37
2019-06-20T07:28:44.047Z,21.33
2019-06-20T07:29:44.073Z,21.38
2019-06-20T07:30:44.005Z,21.48
2019-06-20T07:31:44.038Z,21.51
2019-06-20T07:32:43.988Z,21.60
2019-06-20T07:33:44.174Z,21.60
2019-06-20T07:34:44.042Z,21.59
2019-06-20T07:35:44.211Z,21.75
2019-06-20T07:36:43.959Z,21.68
2019-06-20T07:37:43.943Z,21.75
2019-06-20T07:38:44.053Z,21.70
2019-06-20T07:39:43.952Z,21.70
2019-06-20T07:40:43.916Z,21.74
2019-06-20T07:41:45.203Z,21.70
2019-06-20T07:42:43.948Z,21.77
2019-06-20T07:43:43.887Z,21.88
2019-06-20T07:44:43.984Z,21.91
2019-06-20T07:46:01.194Z,21.96
2019-06-20T07:46:44.930Z,21.85
2019-06-20T07:47:43.900Z,21.89
2019-06-20T07:48:44.210Z,21.88
2019-06-20T07:49:44.646Z,21.80
2019-06-20T07:50:43.977Z,21.85
2019-06-20T07:51:43.810Z,21.92
2019-06-20T07:52:57.763Z,21.94
2019-06-20T07:53:44.774Z,21.92
2019-06-20T07:54:43.847Z,22.06
2019-06-20T07:55:43.805Z,22.18
2019-06-20T07:56:43.797Z,22.34
2019-06-20T07:57:43.787Z,22.36
2019-06-20T07:58:43.741Z,22.53
2019-06-20T07:59:43.712Z,22.61
2019-06-20T08:00:43.706Z,22.70
2019-06-20T08:01:43.756Z,22.76
2019-06-20T08:02:43.705Z,22.86
2019-06-20T08:03:45.261Z,22.98
2019-06-20T08:04:43.669Z,23.08
2019-06-20T08:05:43.651Z,23.02
2019-06-20T08:06:43.733Z,23.26
2019-06-20T08:07:43.709Z,23.34
2019-06-20T08:08:43.692Z,23.10
2019-06-20T08:09:45.094Z,22.98
2019-06-20T08:10:43.594Z,23.01
2019-06-20T08:11:43.595Z,23.13
2019-06-20T08:12:43.604Z,23.02
2019-06-20T08:13:43.589Z,22.99
2019-06-20T08:14:43.553Z,23.14
2019-06-20T08:15:43.584Z,23.06
2019-06-20T08:16:43.566Z,23.13
2019-06-20T08:17:43.567Z,23.40
2019-06-20T08:18:43.537Z,23.39
2019-06-20T08:19:43.534Z,23.36
2019-06-20T08:20:43.563Z,23.51
2019-06-20T08:21:44.179Z,23.63
2019-06-20T08:22:43.526Z,23.67
2019-06-20T08:23:43.486Z,23.69
2019-06-20T08:24:43.497Z,23.77
2019-06-20T08:25:43.448Z,23.70
2019-06-20T08:26:43.485Z,23.94
2019-06-20T08:27:43.422Z,23.85
2019-06-20T08:28:43.463Z,23.84
2019-06-20T08:29:43.390Z,24.14
2019-06-20T08:30:43.396Z,24.41
2019-06-20T08:31:43.386Z,24.46
2019-06-20T08:32:43.367Z,24.44
2019-06-20T08:33:43.369Z,24.44
2019-06-20T08:34:43.547Z,24.58
2019-06-20T08:35:43.365Z,24.58
2019-06-20T08:36:43.314Z,24.65
2019-06-20T08:37:43.494Z,24.69
2019-06-20T08:38:43.374Z,24.69
2019-06-20T08:39:43.351Z,24.82
2019-06-20T08:40:43.281Z,24.86
2019-06-20T08:41:43.268Z,24.99
2019-06-20T08:42:43.520Z,24.85
2019-06-20T08:43:43.333Z,24.65
2019-06-20T08:44:43.385Z,24.62
2019-06-20T08:45:43.273Z,24.58
2019-06-20T08:46:43.226Z,24.51
2019-06-20T08:47:43.354Z,24.56
2019-06-20T08:48:43.293Z,24.59
2019-06-20T08:49:43.193Z,25.01
2019-06-20T08:50:43.220Z,24.94
2019-06-20T08:51:43.220Z,24.88
2019-06-20T08:52:43.195Z,24.61
2019-06-20T08:53:43.171Z,24.53
2019-06-20T08:54:43.154Z,24.94
2019-06-20T08:55:43.204Z,25.09
2019-06-20T08:56:43.152Z,25.37
2019-06-20T08:57:43.352Z,25.52
2019-06-20T08:58:43.122Z,25.58
2019-06-20T08:59:43.110Z,25.63
2019-06-20T09:00:43.096Z,25.80
2019-06-20T09:01:43.815Z,25.86
2019-06-20T09:02:43.100Z,25.68
2019-06-20T09:03:43.030Z,25.88
2019-06-20T09:04:43.049Z,26.15
2019-06-20T09:05:43.032Z,26.06
2019-06-20T09:06:43.043Z,26.18
2019-06-20T09:07:43.782Z,26.42
2019-06-20T09:08:43.011Z,26.16
2019-06-20T09:09:43.003Z,26.18
2019-06-20T09:10:43.008Z,25.96
2019-06-20T09:11:42.946Z,25.80
2019-06-20T09:12:42.976Z,25.41
2019-06-20T09:13:43.005Z,25.04
2019-06-20T09:14:42.937Z,24.75
2019-06-20T09:15:42.911Z,24.65
2019-06-20T09:16:42.938Z,24.56
2019-06-20T09:17:42.917Z,24.47
2019-06-20T09:18:43.263Z,24.37
2019-06-20T09:19:42.880Z,24.28
2019-06-20T09:20:42.953Z,24.24
2019-06-20T09:21:43.813Z,24.19
2019-06-20T09:22:42.917Z,24.19
2019-06-20T09:23:43.061Z,24.22
2019-06-20T09:24:42.870Z,24.28
2019-06-20T09:25:42.822Z,24.31
2019-06-20T09:26:42.833Z,24.43
2019-06-20T09:27:42.871Z,24.51
2019-06-20T09:28:42.940Z,24.47
2019-06-20T09:29:42.917Z,24.41
2019-06-20T09:30:42.820Z,24.37
2019-06-20T09:31:42.873Z,24.31
2019-06-20T09:32:42.841Z,24.34
2019-06-20T09:33:42.750Z,24.31
2019-06-20T09:34:42.813Z,24.28
2019-06-20T09:35:42.699Z,24.41
2019-06-20T09:36:42.908Z,24.75
2019-06-20T09:37:43.000Z,25.03
2019-06-20T09:38:43.453Z,25.22
2019-06-20T09:39:42.665Z,25.46
2019-06-20T09:40:42.668Z,25.44
2019-06-20T09:41:42.770Z,25.25
2019-06-20T09:42:43.147Z,25.24
2019-06-20T09:43:42.755Z,25.21
2019-06-20T09:44:42.679Z,25.09
2019-06-20T09:45:42.604Z,25.15
2019-06-20T09:46:42.861Z,25.18
2019-06-20T09:47:42.783Z,25.18
2019-06-20T09:48:42.899Z,25.24
2019-06-20T09:49:42.682Z,25.24
2019-06-20T09:50:42.951Z,25.34
2019-06-20T09:51:42.876Z,25.48
2019-06-20T09:52:43.207Z,25.63
2019-06-20T09:53:42.970Z,25.74
2019-06-20T09:54:42.587Z,25.76
2019-06-20T09:55:42.515Z,25.54
2019-06-20T09:56:42.822Z,25.56
2019-06-20T09:57:54.043Z,25.52
2019-06-20T09:58:42.489Z,25.59
2019-06-20T10:00:02.713Z,25.63
2019-06-20T10:00:43.500Z,25.62
2019-06-20T10:03:34.090Z,25.95
2019-06-20T10:07:13.944Z,26.19
2019-06-20T10:08:22.077Z,26.19
2019-06-20T10:12:06.180Z,26.18
2019-06-20T10:18:01.012Z,26.76
2019-06-20T10:19:00.852Z,26.63
2019-06-20T10:20:00.901Z,26.70
2019-06-20T10:21:00.859Z,26.71
2019-06-20T10:22:01.208Z,26.27
2019-06-20T10:23:00.739Z,26.19
2019-06-20T10:24:00.682Z,26.15
2019-06-20T10:25:00.688Z,26.10
2019-06-20T10:26:00.723Z,26.18
2019-06-20T10:27:00.717Z,26.15
2019-06-20T10:28:01.238Z,26.08
2019-06-20T10:29:00.689Z,26.15
2019-06-20T10:30:13.540Z,26.19
2019-06-20T10:31:01.800Z,26.11
2019-06-20T10:32:00.647Z,26.24
2019-06-20T10:33:00.638Z,25.91
2019-06-20T10:34:00.618Z,25.80
2019-06-20T10:35:00.955Z,25.78
2019-06-20T10:36:00.611Z,25.76
2019-06-20T10:37:00.617Z,25.93
2019-06-20T10:38:00.754Z,26.04
2019-06-20T10:39:00.598Z,26.03
2019-06-20T10:40:00.593Z,25.95
2019-06-20T10:41:00.566Z,26.06
2019-06-20T10:42:00.683Z,26.04
2019-06-20T10:43:00.548Z,26.07
2019-06-20T10:44:00.501Z,26.24
2019-06-20T10:45:00.530Z,26.10
2019-06-20T10:46:00.488Z,25.91
2019-06-20T10:47:00.478Z,26.16
2019-06-20T10:48:00.442Z,26.22
2019-06-20T10:49:00.588Z,26.45
2019-06-20T10:50:00.471Z,26.61
2019-06-20T10:51:00.412Z,26.76
2019-06-20T10:52:00.592Z,26.93
2019-06-20T10:53:00.442Z,27.04
2019-06-20T10:54:00.396Z,27.20
2019-06-20T10:55:00.560Z,27.07
2019-06-20T10:56:00.370Z,27.11
2019-06-20T10:57:00.558Z,27.19
2019-06-20T10:58:00.404Z,27.25
2019-06-20T10:59:00.326Z,27.34
2019-06-20T11:00:00.307Z,27.38
2019-06-20T11:01:00.370Z,27.47
2019-06-20T11:02:00.657Z,27.66
2019-06-20T11:03:00.409Z,27.78
2019-06-20T11:04:00.336Z,27.81
2019-06-20T11:05:00.415Z,27.88
2019-06-20T11:06:00.285Z,27.94
2019-06-20T11:07:00.242Z,27.93
2019-06-20T11:08:00.469Z,27.93
2019-06-20T11:09:00.252Z,28.01
2019-06-20T11:10:00.366Z,27.91
2019-06-20T11:11:00.249Z,27.83
2019-06-20T11:12:01.359Z,27.60
2019-06-20T11:13:00.211Z,27.48
2019-06-20T11:14:00.177Z,27.44
2019-06-20T11:15:00.535Z,27.40
2019-06-20T11:16:00.301Z,27.38
2019-06-20T11:17:00.157Z,27.30
2019-06-20T11:18:00.159Z,27.22
2019-06-20T11:19:00.160Z,27.34
2019-06-20T11:20:00.176Z,27.30
2019-06-20T11:21:00.100Z,27.35
2019-06-20T11:22:00.122Z,27.34
2019-06-20T11:23:00.328Z,27.22
2019-06-20T11:24:00.142Z,27.22
2019-06-20T11:25:00.156Z,27.16
2019-06-20T11:26:00.229Z,27.08
2019-06-20T11:27:00.035Z,27.08
2019-06-20T11:27:59.999Z,27.20
2019-06-20T11:29:00.019Z,27.28
2019-06-20T11:30:00.050Z,27.40
2019-06-20T11:31:00.582Z,27.16
2019-06-20T11:31:59.962Z,27.28
2019-06-20T11:32:59.954Z,27.41
2019-06-20T11:33:59.954Z,27.48
2019-06-20T11:34:59.962Z,27.40
2019-06-20T11:35:59.967Z,27.50
2019-06-20T11:36:59.989Z,27.57
2019-06-20T11:37:59.942Z,27.68
2019-06-20T11:38:59.933Z,27.72
2019-06-20T11:39:59.904Z,27.86
2019-06-20T11:40:59.951Z,27.82
2019-06-20T11:41:59.919Z,27.72
2019-06-20T11:42:59.864Z,27.86
2019-06-20T11:43:59.865Z,28.00
2019-06-20T11:44:59.855Z,28.12
2019-06-20T11:45:59.841Z,28.31
2019-06-20T11:46:59.844Z,28.59
2019-06-20T11:47:59.844Z,28.57
2019-06-20T11:48:59.803Z,28.64
2019-06-20T11:49:59.852Z,28.72
2019-06-20T11:50:59.790Z,28.62
2019-06-20T11:51:59.861Z,28.62
2019-06-20T11:52:59.765Z,28.65
2019-06-20T11:53:59.786Z,28.65
2019-06-20T11:54:59.720Z,28.65
2019-06-20T11:55:59.725Z,28.49
2019-06-20T11:56:59.761Z,28.43
2019-06-20T11:57:59.730Z,28.35
2019-06-20T11:58:59.685Z,28.43
2019-06-20T11:59:59.679Z,28.41
2019-06-20T12:01:03.943Z,28.31
2019-06-20T12:02:00.024Z,28.33
2019-06-20T12:02:59.709Z,28.33
2019-06-20T12:03:59.653Z,28.38
2019-06-20T12:04:59.652Z,28.37
2019-06-20T12:05:59.658Z,28.43
2019-06-20T12:07:00.528Z,28.28
2019-06-20T12:07:59.653Z,28.35
2019-06-20T12:08:59.595Z,28.33
2019-06-20T12:09:59.733Z,28.35
2019-06-20T12:10:59.575Z,28.28
2019-06-20T12:11:59.568Z,28.43
2019-06-20T12:12:59.581Z,28.53
2019-06-20T12:13:59.562Z,28.65
2019-06-20T12:14:59.511Z,28.70
2019-06-20T12:15:59.585Z,28.75
2019-06-20T12:16:59.507Z,28.82
2019-06-20T12:17:59.534Z,28.80
2019-06-20T12:19:00.028Z,28.87
2019-06-20T12:19:59.494Z,29.07
2019-06-20T12:20:59.489Z,29.28
2019-06-20T12:21:59.612Z,29.34
2019-06-20T12:22:59.472Z,29.90
2019-06-20T12:23:59.792Z,30.26
2019-06-20T12:24:59.465Z,30.44
2019-06-20T12:25:59.802Z,30.86
2019-06-20T12:26:59.516Z,31.25
2019-06-20T12:27:59.437Z,31.51
2019-06-20T12:28:59.423Z,31.82
2019-06-20T12:29:59.418Z,32.22
2019-06-20T12:30:59.357Z,32.63
2019-06-20T12:31:59.448Z,32.81
2019-06-20T12:32:59.575Z,32.75
2019-06-20T12:33:59.832Z,33.08
2019-06-20T12:34:59.605Z,33.28
2019-06-20T12:35:59.351Z,33.23
2019-06-20T12:36:59.327Z,32.94
2019-06-20T12:37:59.309Z,32.57
2019-06-20T12:38:59.524Z,32.29
2019-06-20T12:40:00.243Z,32.16
2019-06-20T12:40:59.296Z,32.07
2019-06-20T12:41:59.316Z,31.93
2019-06-20T12:42:59.282Z,31.78
2019-06-20T12:43:59.454Z,31.60
2019-06-20T12:44:59.324Z,31.54
2019-06-20T12:45:59.452Z,31.67
2019-06-20T12:46:59.301Z,31.82
2019-06-20T12:47:59.733Z,31.98
2019-06-20T12:48:59.266Z,31.86
2019-06-20T12:49:59.221Z,31.78
2019-06-20T12:50:59.197Z,31.77
2019-06-20T12:51:59.407Z,31.64
2019-06-20T12:52:59.303Z,31.79
2019-06-20T12:53:59.614Z,32.02
2019-06-20T12:54:59.334Z,32.20
2019-06-20T12:55:59.220Z,32.17
2019-06-20T12:56:59.117Z,32.22
2019-06-20T12:57:59.095Z,32.42
2019-06-20T12:58:59.256Z,33.10
2019-06-20T12:59:59.106Z,33.45
2019-06-20T13:00:59.309Z,34.13
2019-06-20T13:01:59.224Z,34.73
2019-06-20T13:02:59.168Z,35.37
2019-06-20T13:03:59.180Z,35.72
2019-06-20T13:04:59.063Z,35.63